createdAt,value
2022-09-16T00:01:29.994Z,101413.38
2022-09-16T00:03:58.664Z,101412.25
2022-09-16T00:06:29.486Z,101412.38
2022-09-16T00:09:02.136Z,101409.22
2022-09-16T00:11:34.442Z,101421.97
2022-09-16T00:14:03.108Z,101405.78
2022-09-16T00:16:31.388Z,101406.00
2022-09-16T00:19:03.268Z,101404.59
2022-09-16T00:21:32.075Z,101412.97
2022-09-16T00:24:01.714Z,101410.09
2022-09-16T00:26:29.986Z,101406.56
2022-09-16T00:28:58.356Z,101416.63
2022-09-16T00:31:26.500Z,101410.66
2022-09-16T00:33:54.629Z,101414.91
2022-09-16T00:36:24.288Z,101413.28
2022-09-16T00:38:53.418Z,101405.75
2022-09-16T00:41:26.348Z,101411.81
2022-09-16T00:43:57.991Z,101414.38
2022-09-16T00:46:33.718Z,101424.34
2022-09-16T00:49:06.008Z,101418.63
2022-09-16T00:51:34.846Z,101414.06
2022-09-16T00:54:06.136Z,101415.47
2022-09-16T00:56:39.837Z,101418.84
2022-09-16T00:59:11.026Z,101427.38
2022-09-16T01:01:40.334Z,101413.16
2022-09-16T01:04:13.886Z,101406.84
2022-09-16T01:06:42.479Z,101415.25
2022-09-16T01:09:10.552Z,101409.84
2022-09-16T01:11:40.148Z,101415.66
2022-09-16T01:14:25.942Z,101411.41
2022-09-16T01:17:01.376Z,101427.09
2022-09-16T01:19:46.188Z,101422.22
2022-09-16T01:22:30.204Z,101422.69
2022-09-16T01:25:08.948Z,101411.53
2022-09-16T01:27:53.419Z,101419.81
2022-09-16T01:30:43.979Z,101421.34
2022-09-16T01:33:21.651Z,101423.66
2022-09-16T01:36:02.715Z,101423.66
2022-09-16T01:38:54.776Z,101420.13
2022-09-16T01:41:31.134Z,101410.88
2022-09-16T01:44:07.129Z,101424.22
2022-09-16T01:46:45.028Z,101416.94
2022-09-16T01:49:22.067Z,101414.78
2022-09-16T01:51:55.357Z,101412.56
2022-09-16T01:54:30.497Z,101415.66
2022-09-16T01:57:06.181Z,101411.41
2022-09-16T01:59:40.877Z,101414.78
2022-09-16T02:02:16.649Z,101421.22
2022-09-16T02:04:49.939Z,101411.41
2022-09-16T02:07:22.079Z,101410.22
2022-09-16T02:09:53.955Z,101411.63
2022-09-16T02:12:28.436Z,101420.50
2022-09-16T02:15:03.928Z,101407.16
2022-09-16T02:17:37.318Z,101421.06
2022-09-16T02:20:09.416Z,101420.50
2022-09-16T02:22:40.555Z,101407.59
2022-09-16T02:25:11.097Z,101408.28
2022-09-16T02:27:41.447Z,101409.72
2022-09-16T02:30:12.324Z,101412.38
2022-09-16T02:32:47.467Z,101416.38
2022-09-16T02:35:20.257Z,101412.59
2022-09-16T02:37:53.464Z,101419.00
2022-09-16T02:40:26.289Z,101410.66
2022-09-16T02:42:54.693Z,101407.13
2022-09-16T02:45:27.263Z,101410.66
2022-09-16T02:48:04.443Z,101410.50
2022-09-16T02:50:41.294Z,101405.94
2022-09-16T02:53:22.217Z,101406.94
2022-09-16T02:55:57.304Z,101406.66
2022-09-16T02:58:25.473Z,101410.34
2022-09-16T03:00:56.421Z,101401.38
2022-09-16T03:03:26.559Z,101399.97
2022-09-16T03:06:15.745Z,101403.69
2022-09-16T03:08:46.632Z,101397.28
2022-09-16T03:11:36.582Z,101391.03
2022-09-16T03:14:21.536Z,101395.13
2022-09-16T03:16:57.262Z,101394.00
2022-09-16T03:19:39.026Z,101392.53
2022-09-16T03:22:14.950Z,101399.44
2022-09-16T03:24:57.283Z,101404.72
2022-09-16T03:27:32.079Z,101406.72
2022-09-16T03:30:06.079Z,101401.03
2022-09-16T03:32:39.101Z,101408.75
2022-09-16T03:35:13.535Z,101410.44
2022-09-16T03:37:42.671Z,101409.03
2022-09-16T03:40:13.707Z,101414.22
2022-09-16T03:42:42.963Z,101412.50
2022-09-16T03:45:16.045Z,101411.13
2022-09-16T03:47:44.908Z,101413.44
2022-09-16T03:50:15.097Z,101416.75
2022-09-16T03:52:43.275Z,101422.28
2022-09-16T03:55:12.083Z,101428.00
2022-09-16T03:57:40.752Z,101430.84
2022-09-16T04:00:10.759Z,101430.44
2022-09-16T04:02:38.908Z,101426.03
2022-09-16T04:05:08.296Z,101431.72
2022-09-16T04:07:37.921Z,101431.31
2022-09-16T04:10:06.934Z,101435.03
2022-09-16T04:12:35.276Z,101433.63
2022-09-16T04:15:03.348Z,101430.94
2022-09-16T04:17:33.139Z,101435.63
2022-09-16T04:20:01.516Z,101433.78
2022-09-16T04:22:30.601Z,101442.03
2022-09-16T04:25:00.243Z,101436.25
2022-09-16T04:27:28.347Z,101440.47
2022-09-16T04:29:56.459Z,101437.94
2022-09-16T04:32:25.330Z,101434.38
2022-09-16T04:34:53.315Z,101434.69
2022-09-16T04:37:21.378Z,101442.63
2022-09-16T04:39:49.500Z,101440.78
2022-09-16T04:42:19.123Z,101443.34
2022-09-16T04:44:47.114Z,101436.94
2022-09-16T04:47:15.166Z,101444.03
2022-09-16T04:49:43.194Z,101438.22
2022-09-16T04:52:11.787Z,101444.59
2022-09-16T04:54:39.754Z,101449.53
2022-09-16T04:57:07.793Z,101451.25
2022-09-16T04:59:37.296Z,101443.13
2022-09-16T05:02:05.665Z,101445.41
2022-09-16T05:04:33.612Z,101445.09
2022-09-16T05:07:01.697Z,101451.97
2022-09-16T05:09:30.733Z,101449.94
2022-09-16T05:11:59.314Z,101451.63
2022-09-16T05:14:27.437Z,101449.53
2022-09-16T05:16:57.459Z,101455.16
2022-09-16T05:19:25.723Z,101452.56
2022-09-16T05:21:54.071Z,101445.22
2022-09-16T05:24:22.107Z,101446.78
2022-09-16T05:26:50.510Z,101449.06
2022-09-16T05:29:19.137Z,101443.25
2022-09-16T05:31:48.292Z,101454.38
2022-09-16T05:34:19.993Z,101458.19
2022-09-16T05:36:49.666Z,101446.13
2022-09-16T05:39:23.303Z,101454.38
2022-09-16T05:41:55.771Z,101471.53
2022-09-16T05:44:23.951Z,101469.72
2022-09-16T05:46:52.282Z,101462.06
2022-09-16T05:49:23.434Z,101461.75
2022-09-16T05:51:51.558Z,101470.56
2022-09-16T05:54:20.022Z,101463.75
2022-09-16T05:56:48.935Z,101467.88
2022-09-16T05:59:18.423Z,101472.84
2022-09-16T06:01:47.091Z,101473.13
2022-09-16T06:04:16.849Z,101476.50
2022-09-16T06:06:47.797Z,101477.25
2022-09-16T06:09:18.089Z,101478.38
2022-09-16T06:11:48.172Z,101478.25
2022-09-16T06:14:16.953Z,101479.53
2022-09-16T06:16:45.615Z,101481.81
2022-09-16T06:19:15.813Z,101488.06
2022-09-16T06:21:44.831Z,101483.94
2022-09-16T06:24:32.657Z,101490.44
2022-09-16T06:27:01.143Z,101501.56
2022-09-16T06:29:29.091Z,101499.84
2022-09-16T06:31:57.849Z,101498.72
2022-09-16T06:34:26.860Z,101495.16
2022-09-16T06:36:54.948Z,101494.16
2022-09-16T06:39:24.167Z,101502.69
2022-09-16T06:41:54.829Z,101505.94
2022-09-16T06:44:23.437Z,101503.41
2022-09-16T06:46:51.461Z,101510.34
2022-09-16T06:49:19.619Z,101510.22
2022-09-16T06:51:48.006Z,101508.50
2022-09-16T06:54:16.233Z,101510.06
2022-09-16T06:56:44.417Z,101510.91
2022-09-16T06:59:15.099Z,101521.28
2022-09-16T07:01:43.366Z,101517.31
2022-09-16T07:04:13.539Z,101519.16
2022-09-16T07:09:30.261Z,101519.56
2022-09-16T07:11:59.387Z,101519.28
2022-09-16T07:14:32.711Z,101527.09
2022-09-16T07:17:01.700Z,101527.78
2022-09-16T07:19:29.923Z,101521.25
2022-09-16T07:21:58.343Z,101534.31
2022-09-16T07:24:27.244Z,101530.22
2022-09-16T07:26:55.765Z,101535.88
2022-09-16T07:29:28.130Z,101537.59
2022-09-16T07:31:58.721Z,101535.88
2022-09-16T07:34:26.799Z,101541.13
2022-09-16T07:36:54.889Z,101548.94
2022-09-16T07:39:24.542Z,101548.50
2022-09-16T07:41:52.822Z,101548.94
2022-09-16T07:44:22.469Z,101561.44
2022-09-16T07:46:51.696Z,101553.78
2022-09-16T07:49:21.369Z,101565.41
2022-09-16T07:51:50.569Z,101572.50
2022-09-16T07:54:21.788Z,101561.44
2022-09-16T07:56:50.244Z,101571.28
2022-09-16T07:59:29.710Z,101577.09
2022-09-16T08:01:58.338Z,101575.81
2022-09-16T08:04:33.692Z,101576.94
2022-09-16T08:07:02.158Z,101580.19
2022-09-16T08:09:41.086Z,101585.69
2022-09-16T08:12:13.069Z,101586.13
2022-09-16T08:14:41.296Z,101590.22
2022-09-16T08:17:33.590Z,101597.06
2022-09-16T08:20:07.415Z,101584.25
2022-09-16T08:23:03.184Z,101596.78
2022-09-16T08:29:08.754Z,101601.81
2022-09-16T08:31:48.391Z,101597.59
2022-09-16T08:34:17.307Z,101606.25
2022-09-16T08:36:52.930Z,101610.66
2022-09-16T08:39:24.094Z,101610.94
2022-09-16T08:42:43.993Z,101616.75
2022-09-16T08:45:20.969Z,101619.59
2022-09-16T08:48:16.861Z,101629.38
2022-09-16T08:50:48.399Z,101621.28
2022-09-16T08:53:49.142Z,101624.69
2022-09-16T08:56:20.671Z,101621.41
2022-09-16T08:58:53.607Z,101632.31
2022-09-16T09:01:37.842Z,101618.38
2022-09-16T09:04:11.225Z,101626.50
2022-09-16T09:06:59.060Z,101627.50
2022-09-16T09:09:57.690Z,101632.63
2022-09-16T09:16:35.200Z,101636.28
2022-09-16T09:19:32.758Z,101635.47
2022-09-16T09:25:37.456Z,101643.56
2022-09-16T09:28:49.844Z,101647.16
2022-09-16T09:34:56.470Z,101655.69
2022-09-16T09:37:39.345Z,101647.88
2022-09-16T09:40:14.654Z,101642.53
2022-09-16T09:42:49.095Z,101653.09
2022-09-16T09:45:48.782Z,101658.38
2022-09-16T09:48:23.661Z,101644.50
2022-09-16T09:50:53.959Z,101646.66
2022-09-16T09:53:49.614Z,101658.66
2022-09-16T09:56:31.615Z,101667.63
2022-09-16T09:59:08.985Z,101670.91
2022-09-16T10:01:39.184Z,101668.25
2022-09-16T10:04:27.367Z,101670.22
2022-09-16T10:07:07.367Z,101665.03
2022-09-16T10:12:52.624Z,101671.19
2022-09-16T10:15:23.976Z,101662.59
2022-09-16T10:18:27.409Z,101668.00
2022-09-16T10:21:07.105Z,101661.03
2022-09-16T10:24:11.793Z,101661.66
2022-09-16T10:26:43.284Z,101655.94
2022-09-16T10:36:27.565Z,101648.97
2022-09-16T10:39:07.433Z,101673.25
2022-09-16T10:41:46.181Z,101659.72
2022-09-16T10:44:18.412Z,101656.16
2022-09-16T10:46:55.551Z,101652.25
2022-09-16T10:49:31.103Z,101655.59
2022-09-16T10:52:16.765Z,101671.75
2022-09-16T10:54:46.344Z,101672.63
2022-09-16T10:57:32.738Z,101653.16
2022-09-16T11:00:14.691Z,101644.16
2022-09-16T11:03:23.873Z,101648.91
2022-09-16T11:06:06.222Z,101669.53
2022-09-16T11:08:48.253Z,101667.66
2022-09-16T11:11:38.503Z,101663.47
2022-09-16T11:14:16.745Z,101658.09
2022-09-16T11:17:03.118Z,101673.34
2022-09-16T11:19:43.460Z,101664.19
2022-09-16T11:22:24.994Z,101658.88
2022-09-16T11:25:22.496Z,101675.69
2022-09-16T11:28:02.290Z,101677.06
2022-09-16T11:30:40.268Z,101685.44
2022-09-16T11:33:19.800Z,101675.41
2022-09-16T11:36:09.936Z,101688.41
2022-09-16T11:38:47.895Z,101666.91
2022-09-16T11:41:26.206Z,101671.84
2022-09-16T11:44:20.257Z,101670.03
2022-09-16T11:46:59.734Z,101674.25
2022-09-16T11:55:37.573Z,101672.66
2022-09-16T12:01:01.621Z,101689.97
2022-09-16T12:03:45.881Z,101682.84
2022-09-16T12:14:45.594Z,101664.44
2022-09-16T12:17:21.488Z,101666.38
2022-09-16T12:19:54.770Z,101687.25
2022-09-16T12:22:28.270Z,101685.56
2022-09-16T12:25:05.465Z,101690.63
2022-09-16T12:27:58.058Z,101692.63
2022-09-16T12:30:36.203Z,101677.47
2022-09-16T12:33:09.587Z,101673.84
2022-09-16T12:35:44.733Z,101689.75
2022-09-16T12:38:18.678Z,101697.16
2022-09-16T12:41:02.033Z,101687.88
2022-09-16T12:44:34.925Z,101690.66
2022-09-16T12:47:54.857Z,101697.94
2022-09-16T12:50:49.727Z,101694.53
2022-09-16T12:53:53.216Z,101688.88
2022-09-16T12:56:48.357Z,101701.28
2022-09-16T12:59:43.487Z,101698.56
2022-09-16T13:02:28.957Z,101695.44
2022-09-16T13:05:16.125Z,101682.34
2022-09-16T13:07:52.241Z,101681.91
2022-09-16T13:10:46.761Z,101691.97
2022-09-16T13:13:21.687Z,101691.44
2022-09-16T13:18:48.413Z,101696.75
2022-09-16T13:21:27.323Z,101693.63
2022-09-16T13:24:05.306Z,101697.69
2022-09-16T13:26:41.850Z,101691.75
2022-09-16T13:29:46.274Z,101692.44
2022-09-16T13:32:43.892Z,101687.19
2022-09-16T13:35:40.444Z,101691.94
2022-09-16T13:38:44.276Z,101691.59
2022-09-16T13:41:21.547Z,101686.88
2022-09-16T13:43:55.181Z,101683.19
2022-09-16T14:22:34.630Z,101698.91
2022-09-16T14:25:29.567Z,101684.34
2022-09-16T14:28:34.855Z,101693.13
2022-09-16T14:31:17.564Z,101679.22
2022-09-16T14:33:56.528Z,101667.28
2022-09-16T14:39:24.590Z,101677.06
2022-09-16T14:42:07.493Z,101679.19
2022-09-16T14:45:10.510Z,101671.66
2022-09-16T14:47:57.417Z,101678.69
2022-09-16T14:50:46.701Z,101689.81
2022-09-16T14:53:35.742Z,101679.56
2022-09-16T14:56:08.413Z,101679.03
2022-09-16T14:58:55.807Z,101685.88
2022-09-16T15:01:31.091Z,101694.06
2022-09-16T15:04:06.491Z,101689.72
2022-09-16T15:06:43.152Z,101671.94
2022-09-16T15:09:21.862Z,101675.31
2022-09-16T15:11:58.411Z,101672.31
2022-09-16T15:14:28.817Z,101669.13
2022-09-16T15:17:01.625Z,101671.16
2022-09-16T15:19:35.551Z,101679.00
2022-09-16T15:22:05.814Z,101674.22
2022-09-16T15:25:01.058Z,101679.94
2022-09-16T15:27:33.570Z,101674.78
2022-09-16T15:30:06.811Z,101677.72
2022-09-16T15:35:36.915Z,101681.38
2022-09-16T15:38:16.885Z,101671.41
2022-09-16T15:41:08.779Z,101693.78
2022-09-16T15:46:52.464Z,101679.38
2022-09-16T15:49:29.417Z,101678.50
2022-09-16T15:52:04.848Z,101685.34
2022-09-16T15:54:38.186Z,101699.84
2022-09-16T15:57:11.730Z,101694.91
2022-09-16T15:59:47.188Z,101694.28
2022-09-16T16:02:26.932Z,101683.03
2022-09-16T16:05:09.299Z,101688.00
2022-09-16T16:07:44.428Z,101685.16
2022-09-16T16:10:20.958Z,101683.53
2022-09-16T16:12:50.331Z,101683.13
2022-09-16T16:15:25.419Z,101683.66
2022-09-16T16:18:01.415Z,101697.47
2022-09-16T16:20:32.941Z,101677.59
2022-09-16T16:23:01.234Z,101693.19
2022-09-16T16:25:30.206Z,101683.50
2022-09-16T16:27:59.084Z,101691.47
2022-09-16T16:30:29.322Z,101688.91
2022-09-16T16:33:03.844Z,101699.81
2022-09-16T16:35:32.567Z,101690.81
2022-09-16T16:38:28.235Z,101688.94
2022-09-16T16:40:58.170Z,101688.44
2022-09-16T16:43:28.237Z,101695.75
2022-09-16T16:46:03.059Z,101692.19
2022-09-16T16:48:32.546Z,101683.53
2022-09-16T16:51:03.943Z,101689.63
2022-09-16T16:53:39.193Z,101684.69
2022-09-16T16:56:15.512Z,101692.34
2022-09-16T16:58:44.357Z,101685.28
2022-09-16T17:01:35.916Z,101692.19
2022-09-16T17:04:05.298Z,101691.38
2022-09-16T17:06:46.548Z,101692.22
2022-09-16T17:09:16.235Z,101694.78
2022-09-16T17:11:57.178Z,101689.16
2022-09-16T17:14:27.970Z,101696.31
2022-09-16T17:16:58.709Z,101693.31
2022-09-16T17:19:28.379Z,101702.75
2022-09-16T17:21:57.913Z,101699.81
2022-09-16T17:24:26.868Z,101714.63
2022-09-16T17:26:55.582Z,101714.19
2022-09-16T17:29:23.871Z,101711.41
2022-09-16T17:31:52.981Z,101715.34
2022-09-16T17:34:31.222Z,101708.66
2022-09-16T17:37:00.229Z,101710.00
2022-09-16T17:39:28.887Z,101713.09
2022-09-16T17:42:10.569Z,101713.94
2022-09-16T17:44:39.533Z,101719.00
2022-09-16T17:47:08.014Z,101725.31
2022-09-16T17:49:38.699Z,101716.44
2022-09-16T17:54:50.411Z,101725.53
2022-09-16T17:57:22.963Z,101730.31
2022-09-16T17:59:56.569Z,101732.59
2022-09-16T18:02:25.549Z,101746.09
2022-09-16T18:04:55.330Z,101743.97
2022-09-16T18:07:27.182Z,101746.63
2022-09-16T18:09:58.465Z,101750.63
2022-09-16T18:12:27.065Z,101745.19
2022-09-16T18:15:00.259Z,101757.16
2022-09-16T18:17:30.365Z,101753.66
2022-09-16T18:20:04.982Z,101740.91
2022-09-16T18:22:35.342Z,101749.47
2022-09-16T18:25:04.653Z,101756.66
2022-09-16T18:27:33.170Z,101765.94
2022-09-16T18:30:02.398Z,101769.63
2022-09-16T18:32:30.553Z,101773.00
2022-09-16T18:35:00.559Z,101772.09
2022-09-16T18:37:29.766Z,101776.69
2022-09-16T18:39:58.006Z,101763.75
2022-09-16T18:42:26.278Z,101763.44
2022-09-16T18:44:54.507Z,101760.19
2022-09-16T18:47:22.968Z,101749.56
2022-09-16T18:49:50.970Z,101748.88
2022-09-16T18:52:20.516Z,101747.47
2022-09-16T18:54:49.424Z,101752.16
2022-09-16T18:57:18.141Z,101759.13
2022-09-16T18:59:46.497Z,101761.09
2022-09-16T19:02:15.064Z,101770.63
2022-09-16T19:04:44.893Z,101775.31
2022-09-16T19:07:15.275Z,101788.22
2022-09-16T19:09:46.312Z,101791.44
2022-09-16T19:12:15.374Z,101794.16
2022-09-16T19:14:47.485Z,101800.69
2022-09-16T19:17:16.928Z,101802.66
2022-09-16T19:19:45.093Z,101809.22
2022-09-16T19:22:13.113Z,101811.31
2022-09-16T19:24:42.542Z,101809.47
2022-09-16T19:27:12.095Z,101804.03
2022-09-16T19:29:40.182Z,101806.03
2022-09-16T19:32:08.295Z,101823.50
2022-09-16T19:34:36.411Z,101819.94
2022-09-16T19:37:04.655Z,101838.38
2022-09-16T19:39:33.279Z,101834.09
2022-09-16T19:42:03.994Z,101832.81
2022-09-16T19:44:47.524Z,101847.88
2022-09-16T19:47:16.054Z,101839.44
2022-09-16T19:49:44.211Z,101835.31
2022-09-16T19:52:12.448Z,101839.56
2022-09-16T19:54:40.430Z,101832.84
2022-09-16T19:57:10.957Z,101828.72
2022-09-16T19:59:40.760Z,101833.66
2022-09-16T20:02:11.299Z,101833.66
2022-09-16T20:04:40.113Z,101841.88
2022-09-16T20:07:12.971Z,101851.22
2022-09-16T20:09:41.241Z,101858.56
2022-09-16T20:12:09.740Z,101875.50
2022-09-16T20:14:37.933Z,101881.13
2022-09-16T20:17:07.978Z,101872.44
2022-09-16T20:19:36.600Z,101875.88
2022-09-16T20:22:04.826Z,101885.69
2022-09-16T20:24:33.184Z,101878.84
2022-09-16T20:27:01.551Z,101872.59
2022-09-16T20:29:31.031Z,101881.81
2022-09-16T20:31:59.142Z,101878.38
2022-09-16T20:34:29.277Z,101878.38
2022-09-16T20:36:57.379Z,101887.44
2022-09-16T20:39:25.840Z,101885.72
2022-09-16T20:41:54.054Z,101886.94
2022-09-16T20:44:22.454Z,101886.94
2022-09-16T20:46:50.625Z,101891.59
2022-09-16T20:49:23.213Z,101881.72
2022-09-16T20:51:53.105Z,101897.13
2022-09-16T20:54:21.511Z,101894.44
2022-09-16T20:56:49.763Z,101896.53
2022-09-16T20:59:20.314Z,101902.53
2022-09-16T21:01:50.074Z,101915.16
2022-09-16T21:04:20.160Z,101909.75
2022-09-16T21:06:48.758Z,101921.41
2022-09-16T21:09:19.399Z,101913.16
2022-09-16T21:11:48.111Z,101921.78
2022-09-16T21:14:17.595Z,101924.16
2022-09-16T21:16:47.223Z,101926.56
2022-09-16T21:19:18.371Z,101923.28
2022-09-16T21:21:47.886Z,101914.47
2022-09-16T21:24:17.835Z,101911.06
2022-09-16T21:26:46.568Z,101905.66
2022-09-16T21:29:17.738Z,101901.50
2022-09-16T21:31:45.974Z,101911.69
2022-09-16T21:34:16.004Z,101919.91
2022-09-16T21:36:44.918Z,101929.69
2022-09-16T21:39:13.788Z,101935.09
2022-09-16T21:41:43.721Z,101943.31
2022-09-16T21:44:12.751Z,101942.16
2022-09-16T21:46:43.219Z,101943.91
2022-09-16T21:49:19.315Z,101935.34
2022-09-16T21:51:47.642Z,101924.81
2022-09-16T21:54:20.233Z,101924.72
2022-09-16T21:56:51.071Z,101925.56
2022-09-16T21:59:20.676Z,101928.50
2022-09-16T22:01:50.139Z,101928.41
2022-09-16T22:04:23.138Z,101932.09
2022-09-16T22:06:55.829Z,101942.72
2022-09-16T22:09:24.198Z,101947.97
2022-09-16T22:11:54.263Z,101949.81
2022-09-16T22:14:22.565Z,101945.44
2022-09-16T22:16:50.849Z,101934.88
2022-09-16T22:19:20.314Z,101939.28
2022-09-16T22:21:51.035Z,101947.03
2022-09-16T22:24:22.116Z,101950.22
2022-09-16T22:26:52.199Z,101945.44
2022-09-16T22:29:22.404Z,101951.34
2022-09-16T22:31:50.902Z,101950.16
2022-09-16T22:34:19.535Z,101956.63
2022-09-16T22:36:48.094Z,101957.72
2022-09-16T22:39:20.089Z,101969.81
2022-09-16T22:41:48.729Z,101971.78
2022-09-16T22:44:17.039Z,101979.16
2022-09-16T22:46:48.302Z,101973.25
2022-09-16T22:49:17.534Z,101970.78
2022-09-16T22:51:46.154Z,101966.47
2022-09-16T22:54:15.946Z,101973.84
2022-09-16T22:56:45.234Z,101972.59
2022-09-16T22:59:18.098Z,101971.16
2022-09-16T23:01:48.202Z,101983.22
2022-09-16T23:04:16.576Z,101985.66
2022-09-16T23:06:44.691Z,101990.56
2022-09-16T23:09:14.082Z,101989.94
2022-09-16T23:11:42.423Z,102001.88
2022-09-16T23:14:14.210Z,102004.06
2022-09-16T23:16:42.197Z,101996.34
2022-09-16T23:19:13.630Z,101992.09
2022-09-16T23:21:42.517Z,101998.19
2022-09-16T23:24:15.571Z,102001.22
2022-09-16T23:26:43.744Z,102003.91
2022-09-16T23:29:13.450Z,102001.59
2022-09-16T23:31:43.271Z,102014.28
2022-09-16T23:34:15.936Z,102001.06
2022-09-16T23:36:44.176Z,102006.81
2022-09-16T23:39:15.148Z,102002.63
2022-09-16T23:41:44.326Z,102000.19
2022-09-16T23:44:14.628Z,102011.16
2022-09-16T23:46:43.165Z,102015.81
2022-09-16T23:49:11.553Z,102016.88
2022-09-16T23:51:41.648Z,102017.13
2022-09-16T23:54:09.874Z,102019.81
2022-09-16T23:56:37.932Z,102015.38
2022-09-16T23:59:05.906Z,102011.00
